sensor_id;sensor_type;location;lat;lon;timestamp;P1;durP1;ratioP1;P2;durP2;ratioP2
10244;SDS011;5167;52.164;10.530;2023-05-29T00:00:40;7.55;;;2.90;;
10244;SDS011;5167;52.164;10.530;2023-05-29T00:03:05;5.40;;;3.35;;
10244;SDS011;5167;52.164;10.530;2023-05-29T00:05:31;4.43;;;3.05;;
10244;SDS011;5167;52.164;10.530;2023-05-29T00:07:56;7.07;;;2.85;;
10244;SDS011;5167;52.164;10.530;2023-05-29T00:10:22;8.85;;;3.33;;
10244;SDS011;5167;52.164;10.530;2023-05-29T00:12:47;6.10;;;3.42;;
10244;SDS011;5167;52.164;10.530;2023-05-29T00:15:13;9.10;;;3.10;;
10244;SDS011;5167;52.164;10.530;2023-05-29T00:17:38;8.88;;;4.07;;
10244;SDS011;5167;52.164;10.530;2023-05-29T00:20:05;8.05;;;3.78;;
10244;SDS011;5167;52.164;10.530;2023-05-29T00:22:34;7.88;;;3.45;;
10244;SDS011;5167;52.164;10.530;2023-05-29T00:25:02;9.38;;;3.13;;
10244;SDS011;5167;52.164;10.530;2023-05-29T00:27:28;9.45;;;3.10;;
10244;SDS011;5167;52.164;10.530;2023-05-29T00:29:54;4.65;;;3.15;;
10244;SDS011;5167;52.164;10.530;2023-05-29T00:32:19;7.63;;;3.20;;
10244;SDS011;5167;52.164;10.530;2023-05-29T00:34:45;7.72;;;3.38;;
10244;SDS011;5167;52.164;10.530;2023-05-29T00:37:10;6.80;;;3.35;;
10244;SDS011;5167;52.164;10.530;2023-05-29T00:39:36;7.18;;;2.92;;
10244;SDS011;5167;52.164;10.530;2023-05-29T00:42:01;7.07;;;3.03;;
10244;SDS011;5167;52.164;10.530;2023-05-29T00:44:27;6.10;;;3.10;;
10244;SDS011;5167;52.164;10.530;2023-05-29T00:46:52;7.07;;;2.90;;
10244;SDS011;5167;52.164;10.530;2023-05-29T00:49:18;5.57;;;3.28;;
10244;SDS011;5167;52.164;10.530;2023-05-29T00:51:46;6.47;;;3.58;;
10244;SDS011;5167;52.164;10.530;2023-05-29T00:54:13;8.45;;;3.90;;
10244;SDS011;5167;52.164;10.530;2023-05-29T00:56:42;6.97;;;3.67;;
10244;SDS011;5167;52.164;10.530;2023-05-29T00:59:08;5.22;;;3.35;;
10244;SDS011;5167;52.164;10.530;2023-05-29T01:01:34;7.63;;;3.65;;
10244;SDS011;5167;52.164;10.530;2023-05-29T01:04:00;7.78;;;3.90;;
10244;SDS011;5167;52.164;10.530;2023-05-29T01:06:28;8.48;;;4.18;;
10244;SDS011;5167;52.164;10.530;2023-05-29T01:08:54;6.18;;;3.83;;
10244;SDS011;5167;52.164;10.530;2023-05-29T01:11:39;7.25;;;3.38;;
10244;SDS011;5167;52.164;10.530;2023-05-29T01:14:08;8.25;;;3.88;;
10244;SDS011;5167;52.164;10.530;2023-05-29T01:16:42;6.85;;;3.42;;
10244;SDS011;5167;52.164;10.530;2023-05-29T01:19:18;5.22;;;3.63;;
10244;SDS011;5167;52.164;10.530;2023-05-29T01:22:11;6.18;;;3.90;;
10244;SDS011;5167;52.164;10.530;2023-05-29T01:25:24;9.32;;;4.50;;
10244;SDS011;5167;52.164;10.530;2023-05-29T01:27:37;4.90;;;2.97;;
10244;SDS011;5167;52.164;10.530;2023-05-29T01:30:04;6.55;;;3.60;;
10244;SDS011;5167;52.164;10.530;2023-05-29T01:32:32;7.15;;;3.95;;
10244;SDS011;5167;52.164;10.530;2023-05-29T01:34:58;7.32;;;3.70;;
10244;SDS011;5167;52.164;10.530;2023-05-29T01:37:24;8.23;;;3.60;;
10244;SDS011;5167;52.164;10.530;2023-05-29T01:39:50;9.77;;;3.80;;
10244;SDS011;5167;52.164;10.530;2023-05-29T01:42:15;9.20;;;3.97;;
10244;SDS011;5167;52.164;10.530;2023-05-29T01:44:41;5.70;;;3.50;;
10244;SDS011;5167;52.164;10.530;2023-05-29T01:47:07;7.47;;;3.55;;
10244;SDS011;5167;52.164;10.530;2023-05-29T01:49:33;5.68;;;3.25;;
10244;SDS011;5167;52.164;10.530;2023-05-29T01:52:01;8.93;;;4.25;;
10244;SDS011;5167;52.164;10.530;2023-05-29T01:54:26;5.38;;;4.03;;
10244;SDS011;5167;52.164;10.530;2023-05-29T01:56:52;5.20;;;3.47;;
10244;SDS011;5167;52.164;10.530;2023-05-29T01:59:18;10.02;;;3.72;;
10244;SDS011;5167;52.164;10.530;2023-05-29T02:01:45;8.05;;;3.85;;
10244;SDS011;5167;52.164;10.530;2023-05-29T02:04:12;7.60;;;4.60;;
10244;SDS011;5167;52.164;10.530;2023-05-29T02:06:38;6.05;;;3.53;;
10244;SDS011;5167;52.164;10.530;2023-05-29T02:09:03;7.20;;;3.80;;
10244;SDS011;5167;52.164;10.530;2023-05-29T02:11:29;5.03;;;3.40;;
10244;SDS011;5167;52.164;10.530;2023-05-29T02:13:54;7.88;;;3.85;;
10244;SDS011;5167;52.164;10.530;2023-05-29T02:16:20;7.70;;;3.97;;
10244;SDS011;5167;52.164;10.530;2023-05-29T02:18:46;5.25;;;3.45;;
10244;SDS011;5167;52.164;10.530;2023-05-29T02:21:12;8.10;;;3.97;;
10244;SDS011;5167;52.164;10.530;2023-05-29T02:23:37;6.93;;;4.05;;
10244;SDS011;5167;52.164;10.530;2023-05-29T02:26:03;7.60;;;4.75;;
10244;SDS011;5167;52.164;10.530;2023-05-29T02:28:28;4.55;;;3.80;;
10244;SDS011;5167;52.164;10.530;2023-05-29T02:30:54;7.63;;;3.95;;
10244;SDS011;5167;52.164;10.530;2023-05-29T02:33:19;7.80;;;4.22;;
10244;SDS011;5167;52.164;10.530;2023-05-29T02:35:45;5.18;;;3.70;;
10244;SDS011;5167;52.164;10.530;2023-05-29T02:38:11;7.25;;;4.05;;
10244;SDS011;5167;52.164;10.530;2023-05-29T02:40:36;8.50;;;4.10;;
10244;SDS011;5167;52.164;10.530;2023-05-29T02:43:02;6.90;;;3.78;;
10244;SDS011;5167;52.164;10.530;2023-05-29T02:45:27;5.88;;;3.22;;
10244;SDS011;5167;52.164;10.530;2023-05-29T02:47:53;7.85;;;4.78;;
10244;SDS011;5167;52.164;10.530;2023-05-29T02:50:18;4.85;;;3.50;;
10244;SDS011;5167;52.164;10.530;2023-05-29T02:52:44;7.45;;;4.00;;
10244;SDS011;5167;52.164;10.530;2023-05-29T02:55:09;5.78;;;3.45;;
10244;SDS011;5167;52.164;10.530;2023-05-29T02:57:35;5.63;;;3.92;;
10244;SDS011;5167;52.164;10.530;2023-05-29T03:00:00;9.05;;;3.75;;
10244;SDS011;5167;52.164;10.530;2023-05-29T03:02:26;7.38;;;3.70;;
10244;SDS011;5167;52.164;10.530;2023-05-29T03:04:51;6.07;;;3.20;;
10244;SDS011;5167;52.164;10.530;2023-05-29T03:07:18;6.03;;;3.83;;
10244;SDS011;5167;52.164;10.530;2023-05-29T03:09:44;6.50;;;3.78;;
10244;SDS011;5167;52.164;10.530;2023-05-29T03:12:10;5.28;;;3.50;;
10244;SDS011;5167;52.164;10.530;2023-05-29T03:14:36;6.32;;;3.42;;
10244;SDS011;5167;52.164;10.530;2023-05-29T03:17:03;7.00;;;3.35;;
10244;SDS011;5167;52.164;10.530;2023-05-29T03:19:30;4.63;;;3.40;;
10244;SDS011;5167;52.164;10.530;2023-05-29T03:21:55;9.65;;;3.90;;
10244;SDS011;5167;52.164;10.530;2023-05-29T03:24:21;5.78;;;3.42;;
10244;SDS011;5167;52.164;10.530;2023-05-29T03:26:48;4.47;;;3.38;;
10244;SDS011;5167;52.164;10.530;2023-05-29T03:29:14;4.60;;;3.10;;
10244;SDS011;5167;52.164;10.530;2023-05-29T03:31:41;5.30;;;3.30;;
10244;SDS011;5167;52.164;10.530;2023-05-29T03:34:06;4.00;;;3.17;;
10244;SDS011;5167;52.164;10.530;2023-05-29T03:36:32;5.68;;;3.28;;
10244;SDS011;5167;52.164;10.530;2023-05-29T03:38:58;5.95;;;3.05;;
10244;SDS011;5167;52.164;10.530;2023-05-29T03:41:23;4.93;;;3.13;;
10244;SDS011;5167;52.164;10.530;2023-05-29T03:43:50;5.95;;;3.17;;
10244;SDS011;5167;52.164;10.530;2023-05-29T03:46:15;5.28;;;3.30;;
10244;SDS011;5167;52.164;10.530;2023-05-29T03:48:41;3.15;;;2.83;;
10244;SDS011;5167;52.164;10.530;2023-05-29T03:51:06;5.18;;;3.38;;
10244;SDS011;5167;52.164;10.530;2023-05-29T03:53:32;6.15;;;3.22;;
10244;SDS011;5167;52.164;10.530;2023-05-29T03:55:57;6.25;;;2.70;;
10244;SDS011;5167;52.164;10.530;2023-05-29T03:58:23;7.97;;;3.20;;
10244;SDS011;5167;52.164;10.530;2023-05-29T04:00:48;4.78;;;2.78;;
10244;SDS011;5167;52.164;10.530;2023-05-29T04:03:14;7.57;;;2.95;;
10244;SDS011;5167;52.164;10.530;2023-05-29T04:05:40;3.33;;;2.60;;
10244;SDS011;5167;52.164;10.530;2023-05-29T04:08:05;4.75;;;2.92;;
10244;SDS011;5167;52.164;10.530;2023-05-29T04:10:33;4.80;;;3.03;;
10244;SDS011;5167;52.164;10.530;2023-05-29T04:12:59;5.60;;;2.78;;
10244;SDS011;5167;52.164;10.530;2023-05-29T04:15:26;3.67;;;2.70;;
10244;SDS011;5167;52.164;10.530;2023-05-29T04:17:52;5.43;;;2.80;;
10244;SDS011;5167;52.164;10.530;2023-05-29T04:20:18;4.95;;;2.90;;
10244;SDS011;5167;52.164;10.530;2023-05-29T04:22:43;5.80;;;3.20;;
10244;SDS011;5167;52.164;10.530;2023-05-29T04:25:09;5.60;;;2.90;;
10244;SDS011;5167;52.164;10.530;2023-05-29T04:27:34;5.05;;;3.25;;
10244;SDS011;5167;52.164;10.530;2023-05-29T04:30:06;4.40;;;3.35;;
10244;SDS011;5167;52.164;10.530;2023-05-29T04:32:33;5.15;;;3.15;;
10244;SDS011;5167;52.164;10.530;2023-05-29T04:34:59;5.05;;;2.85;;
10244;SDS011;5167;52.164;10.530;2023-05-29T04:37:27;4.50;;;2.70;;
10244;SDS011;5167;52.164;10.530;2023-05-29T04:40:02;7.03;;;3.03;;
10244;SDS011;5167;52.164;10.530;2023-05-29T04:42:35;4.85;;;2.65;;
10244;SDS011;5167;52.164;10.530;2023-05-29T04:45:01;4.82;;;3.15;;
10244;SDS011;5167;52.164;10.530;2023-05-29T04:47:28;5.05;;;3.53;;
10244;SDS011;5167;52.164;10.530;2023-05-29T04:49:54;5.75;;;3.42;;
10244;SDS011;5167;52.164;10.530;2023-05-29T04:52:19;3.83;;;2.35;;
10244;SDS011;5167;52.164;10.530;2023-05-29T04:54:46;6.47;;;3.28;;
10244;SDS011;5167;52.164;10.530;2023-05-29T04:57:11;4.32;;;2.75;;
10244;SDS011;5167;52.164;10.530;2023-05-29T04:59:37;6.45;;;3.00;;
10244;SDS011;5167;52.164;10.530;2023-05-29T05:02:02;2.92;;;2.47;;
10244;SDS011;5167;52.164;10.530;2023-05-29T05:04:28;5.85;;;3.25;;
10244;SDS011;5167;52.164;10.530;2023-05-29T05:06:53;3.75;;;2.63;;
10244;SDS011;5167;52.164;10.530;2023-05-29T05:09:19;5.97;;;2.85;;
10244;SDS011;5167;52.164;10.530;2023-05-29T05:11:44;3.38;;;2.83;;
10244;SDS011;5167;52.164;10.530;2023-05-29T05:14:10;7.68;;;3.13;;
10244;SDS011;5167;52.164;10.530;2023-05-29T05:16:35;3.45;;;2.65;;
10244;SDS011;5167;52.164;10.530;2023-05-29T05:19:00;5.30;;;2.90;;
10244;SDS011;5167;52.164;10.530;2023-05-29T05:21:26;8.00;;;2.45;;
10244;SDS011;5167;52.164;10.530;2023-05-29T05:23:52;3.17;;;2.53;;
10244;SDS011;5167;52.164;10.530;2023-05-29T05:26:17;5.88;;;2.78;;
10244;SDS011;5167;52.164;10.530;2023-05-29T05:28:42;4.43;;;2.72;;
10244;SDS011;5167;52.164;10.530;2023-05-29T05:31:08;3.15;;;2.38;;
10244;SDS011;5167;52.164;10.530;2023-05-29T05:33:34;6.47;;;2.67;;
10244;SDS011;5167;52.164;10.530;2023-05-29T05:35:59;7.07;;;2.50;;
10244;SDS011;5167;52.164;10.530;2023-05-29T05:38:25;5.20;;;2.53;;
10244;SDS011;5167;52.164;10.530;2023-05-29T05:40:50;6.55;;;2.83;;
10244;SDS011;5167;52.164;10.530;2023-05-29T05:43:16;4.65;;;2.33;;
10244;SDS011;5167;52.164;10.530;2023-05-29T05:45:41;8.15;;;3.00;;
10244;SDS011;5167;52.164;10.530;2023-05-29T05:48:08;5.45;;;2.78;;
10244;SDS011;5167;52.164;10.530;2023-05-29T05:50:34;5.20;;;2.72;;
10244;SDS011;5167;52.164;10.530;2023-05-29T05:52:59;5.32;;;3.05;;
10244;SDS011;5167;52.164;10.530;2023-05-29T05:55:25;7.00;;;3.03;;
10244;SDS011;5167;52.164;10.530;2023-05-29T05:57:52;6.95;;;2.90;;
10244;SDS011;5167;52.164;10.530;2023-05-29T06:00:18;6.15;;;3.47;;
10244;SDS011;5167;52.164;10.530;2023-05-29T06:02:45;8.57;;;2.75;;
10244;SDS011;5167;52.164;10.530;2023-05-29T06:05:10;7.05;;;2.45;;
10244;SDS011;5167;52.164;10.530;2023-05-29T06:07:36;7.63;;;2.90;;
10244;SDS011;5167;52.164;10.530;2023-05-29T06:10:02;5.85;;;2.45;;
10244;SDS011;5167;52.164;10.530;2023-05-29T06:12:29;9.30;;;2.67;;
10244;SDS011;5167;52.164;10.530;2023-05-29T06:14:54;3.65;;;2.63;;
10244;SDS011;5167;52.164;10.530;2023-05-29T06:17:20;9.93;;;2.45;;
10244;SDS011;5167;52.164;10.530;2023-05-29T06:19:46;5.45;;;2.90;;
10244;SDS011;5167;52.164;10.530;2023-05-29T06:22:12;7.32;;;2.42;;
10244;SDS011;5167;52.164;10.530;2023-05-29T06:24:38;7.97;;;2.55;;
10244;SDS011;5167;52.164;10.530;2023-05-29T06:27:04;7.50;;;2.88;;
10244;SDS011;5167;52.164;10.530;2023-05-29T06:29:31;7.95;;;3.10;;
10244;SDS011;5167;52.164;10.530;2023-05-29T06:31:56;7.75;;;2.65;;
10244;SDS011;5167;52.164;10.530;2023-05-29T06:34:22;9.98;;;2.40;;
10244;SDS011;5167;52.164;10.530;2023-05-29T06:36:47;8.77;;;2.90;;
10244;SDS011;5167;52.164;10.530;2023-05-29T06:39:13;6.85;;;2.30;;
10244;SDS011;5167;52.164;10.530;2023-05-29T06:41:39;8.75;;;2.95;;
10244;SDS011;5167;52.164;10.530;2023-05-29T06:44:04;7.40;;;2.63;;
10244;SDS011;5167;52.164;10.530;2023-05-29T06:46:30;6.43;;;2.28;;
10244;SDS011;5167;52.164;10.530;2023-05-29T06:48:55;6.65;;;2.08;;
10244;SDS011;5167;52.164;10.530;2023-05-29T06:51:21;4.97;;;2.53;;
10244;SDS011;5167;52.164;10.530;2023-05-29T06:53:46;3.95;;;2.40;;
10244;SDS011;5167;52.164;10.530;2023-05-29T06:56:12;7.45;;;2.70;;
10244;SDS011;5167;52.164;10.530;2023-05-29T06:58:37;5.57;;;2.38;;
10244;SDS011;5167;52.164;10.530;2023-05-29T07:01:03;7.57;;;2.50;;
10244;SDS011;5167;52.164;10.530;2023-05-29T07:03:28;6.38;;;2.47;;
10244;SDS011;5167;52.164;10.530;2023-05-29T07:05:54;5.18;;;2.85;;
10244;SDS011;5167;52.164;10.530;2023-05-29T07:08:20;9.20;;;2.50;;
10244;SDS011;5167;52.164;10.530;2023-05-29T07:10:46;9.85;;;2.72;;
10244;SDS011;5167;52.164;10.530;2023-05-29T07:13:14;6.82;;;2.15;;
10244;SDS011;5167;52.164;10.530;2023-05-29T07:15:41;3.72;;;2.30;;
10244;SDS011;5167;52.164;10.530;2023-05-29T07:18:06;7.07;;;2.30;;
10244;SDS011;5167;52.164;10.530;2023-05-29T07:20:32;7.15;;;2.53;;
10244;SDS011;5167;52.164;10.530;2023-05-29T07:22:57;4.22;;;2.35;;
10244;SDS011;5167;52.164;10.530;2023-05-29T07:25:23;6.32;;;2.50;;
10244;SDS011;5167;52.164;10.530;2023-05-29T07:27:48;7.45;;;2.20;;
10244;SDS011;5167;52.164;10.530;2023-05-29T07:30:14;8.68;;;2.33;;
10244;SDS011;5167;52.164;10.530;2023-05-29T07:32:40;6.60;;;2.22;;
10244;SDS011;5167;52.164;10.530;2023-05-29T07:35:05;8.27;;;2.17;;
10244;SDS011;5167;52.164;10.530;2023-05-29T07:37:31;6.00;;;2.30;;
10244;SDS011;5167;52.164;10.530;2023-05-29T07:39:57;5.18;;;2.38;;
10244;SDS011;5167;52.164;10.530;2023-05-29T07:42:22;6.15;;;2.05;;
10244;SDS011;5167;52.164;10.530;2023-05-29T07:44:48;7.63;;;2.15;;
10244;SDS011;5167;52.164;10.530;2023-05-29T07:47:13;8.27;;;3.20;;
10244;SDS011;5167;52.164;10.530;2023-05-29T07:49:39;7.90;;;2.65;;
10244;SDS011;5167;52.164;10.530;2023-05-29T07:52:05;9.38;;;2.83;;
10244;SDS011;5167;52.164;10.530;2023-05-29T07:54:31;5.47;;;2.55;;
10244;SDS011;5167;52.164;10.530;2023-05-29T07:56:58;9.13;;;2.53;;
10244;SDS011;5167;52.164;10.530;2023-05-29T07:59:25;6.32;;;2.05;;
10244;SDS011;5167;52.164;10.530;2023-05-29T08:01:51;7.43;;;2.40;;
10244;SDS011;5167;52.164;10.530;2023-05-29T08:04:17;11.15;;;2.92;;
10244;SDS011;5167;52.164;10.530;2023-05-29T08:06:42;12.07;;;2.83;;
10244;SDS011;5167;52.164;10.530;2023-05-29T08:09:08;8.25;;;2.33;;
10244;SDS011;5167;52.164;10.530;2023-05-29T08:11:35;5.05;;;2.65;;
10244;SDS011;5167;52.164;10.530;2023-05-29T08:14:01;9.70;;;2.50;;
10244;SDS011;5167;52.164;10.530;2023-05-29T08:16:27;5.93;;;2.38;;
10244;SDS011;5167;52.164;10.530;2023-05-29T08:18:52;6.40;;;2.25;;
10244;SDS011;5167;52.164;10.530;2023-05-29T08:21:18;9.57;;;2.95;;
10244;SDS011;5167;52.164;10.530;2023-05-29T08:23:44;10.65;;;3.45;;
10244;SDS011;5167;52.164;10.530;2023-05-29T08:26:09;7.90;;;2.50;;
10244;SDS011;5167;52.164;10.530;2023-05-29T08:28:35;7.65;;;2.28;;
10244;SDS011;5167;52.164;10.530;2023-05-29T08:31:01;5.97;;;2.13;;
10244;SDS011;5167;52.164;10.530;2023-05-29T08:33:26;7.93;;;2.45;;
10244;SDS011;5167;52.164;10.530;2023-05-29T08:35:52;5.35;;;2.30;;
10244;SDS011;5167;52.164;10.530;2023-05-29T08:38:17;7.88;;;1.60;;
10244;SDS011;5167;52.164;10.530;2023-05-29T08:40:43;4.80;;;2.17;;
10244;SDS011;5167;52.164;10.530;2023-05-29T08:43:15;5.90;;;2.45;;
10244;SDS011;5167;52.164;10.530;2023-05-29T08:45:47;7.90;;;2.63;;
10244;SDS011;5167;52.164;10.530;2023-05-29T08:48:17;9.50;;;2.92;;
10244;SDS011;5167;52.164;10.530;2023-05-29T08:50:45;5.95;;;2.67;;
10244;SDS011;5167;52.164;10.530;2023-05-29T08:53:12;7.20;;;3.00;;
10244;SDS011;5167;52.164;10.530;2023-05-29T08:55:39;3.90;;;1.85;;
10244;SDS011;5167;52.164;10.530;2023-05-29T08:58:08;11.73;;;2.70;;
10244;SDS011;5167;52.164;10.530;2023-05-29T09:00:36;11.85;;;2.53;;
10244;SDS011;5167;52.164;10.530;2023-05-29T09:03:02;11.40;;;2.95;;
10244;SDS011;5167;52.164;10.530;2023-05-29T09:05:28;6.78;;;2.33;;
10244;SDS011;5167;52.164;10.530;2023-05-29T09:07:54;8.93;;;2.95;;
10244;SDS011;5167;52.164;10.530;2023-05-29T09:10:20;9.23;;;2.38;;
10244;SDS011;5167;52.164;10.530;2023-05-29T09:12:47;7.05;;;2.33;;
10244;SDS011;5167;52.164;10.530;2023-05-29T09:15:18;7.07;;;2.67;;
10244;SDS011;5167;52.164;10.530;2023-05-29T09:17:49;6.75;;;2.47;;
10244;SDS011;5167;52.164;10.530;2023-05-29T09:20:16;6.30;;;2.78;;
10244;SDS011;5167;52.164;10.530;2023-05-29T09:22:51;6.50;;;2.30;;
10244;SDS011;5167;52.164;10.530;2023-05-29T09:25:26;6.05;;;2.38;;
10244;SDS011;5167;52.164;10.530;2023-05-29T09:27:57;4.90;;;2.30;;
10244;SDS011;5167;52.164;10.530;2023-05-29T09:30:31;4.88;;;2.15;;
10244;SDS011;5167;52.164;10.530;2023-05-29T09:32:57;6.88;;;2.25;;
10244;SDS011;5167;52.164;10.530;2023-05-29T09:35:25;7.85;;;2.38;;
10244;SDS011;5167;52.164;10.530;2023-05-29T09:37:51;5.00;;;2.85;;
10244;SDS011;5167;52.164;10.530;2023-05-29T09:40:17;9.00;;;2.92;;
10244;SDS011;5167;52.164;10.530;2023-05-29T09:42:43;11.00;;;2.45;;
10244;SDS011;5167;52.164;10.530;2023-05-29T09:45:08;7.53;;;2.40;;
10244;SDS011;5167;52.164;10.530;2023-05-29T09:47:34;6.28;;;2.10;;
10244;SDS011;5167;52.164;10.530;2023-05-29T09:50:00;5.00;;;2.15;;
10244;SDS011;5167;52.164;10.530;2023-05-29T09:52:26;9.70;;;2.78;;
10244;SDS011;5167;52.164;10.530;2023-05-29T09:54:55;6.50;;;2.08;;
10244;SDS011;5167;52.164;10.530;2023-05-29T09:57:21;6.20;;;2.10;;
10244;SDS011;5167;52.164;10.530;2023-05-29T09:59:49;5.22;;;2.33;;
10244;SDS011;5167;52.164;10.530;2023-05-29T10:02:17;6.55;;;2.08;;
10244;SDS011;5167;52.164;10.530;2023-05-29T10:04:44;5.93;;;2.20;;
10244;SDS011;5167;52.164;10.530;2023-05-29T10:07:10;5.63;;;2.10;;
10244;SDS011;5167;52.164;10.530;2023-05-29T10:09:45;4.72;;;2.13;;
10244;SDS011;5167;52.164;10.530;2023-05-29T10:12:15;5.30;;;1.92;;
10244;SDS011;5167;52.164;10.530;2023-05-29T10:14:45;7.15;;;2.63;;
10244;SDS011;5167;52.164;10.530;2023-05-29T10:17:14;6.18;;;1.70;;
10244;SDS011;5167;52.164;10.530;2023-05-29T10:19:43;4.60;;;1.70;;
10244;SDS011;5167;52.164;10.530;2023-05-29T10:22:12;9.45;;;2.00;;
10244;SDS011;5167;52.164;10.530;2023-05-29T10:24:38;5.43;;;2.15;;
10244;SDS011;5167;52.164;10.530;2023-05-29T10:27:04;6.90;;;2.30;;
10244;SDS011;5167;52.164;10.530;2023-05-29T10:29:37;4.57;;;2.05;;
10244;SDS011;5167;52.164;10.530;2023-05-29T10:32:26;4.38;;;2.25;;
10244;SDS011;5167;52.164;10.530;2023-05-29T10:35:20;5.05;;;1.80;;
10244;SDS011;5167;52.164;10.530;2023-05-29T10:38:00;4.80;;;2.00;;
10244;SDS011;5167;52.164;10.530;2023-05-29T10:40:46;2.40;;;1.60;;
10244;SDS011;5167;52.164;10.530;2023-05-29T10:46:00;9.82;;;1.88;;
10244;SDS011;5167;52.164;10.530;2023-05-29T10:50:54;4.82;;;2.20;;
10244;SDS011;5167;52.164;10.530;2023-05-29T10:53:24;5.80;;;2.20;;
10244;SDS011;5167;52.164;10.530;2023-05-29T10:55:55;5.32;;;1.95;;
10244;SDS011;5167;52.164;10.530;2023-05-29T10:58:21;5.28;;;2.30;;
10244;SDS011;5167;52.164;10.530;2023-05-29T11:00:49;9.45;;;2.20;;
10244;SDS011;5167;52.164;10.530;2023-05-29T11:03:17;2.72;;;1.88;;
10244;SDS011;5167;52.164;10.530;2023-05-29T11:06:01;4.50;;;1.73;;
10244;SDS011;5167;52.164;10.530;2023-05-29T11:08:39;4.38;;;2.22;;
10244;SDS011;5167;52.164;10.530;2023-05-29T11:11:11;3.80;;;2.00;;
10244;SDS011;5167;52.164;10.530;2023-05-29T11:13:37;6.57;;;2.10;;
10244;SDS011;5167;52.164;10.530;2023-05-29T11:18:50;5.05;;;2.38;;
10244;SDS011;5167;52.164;10.530;2023-05-29T11:24:22;6.63;;;1.50;;
10244;SDS011;5167;52.164;10.530;2023-05-29T11:26:49;5.13;;;2.17;;
10244;SDS011;5167;52.164;10.530;2023-05-29T11:29:28;8.40;;;2.40;;
10244;SDS011;5167;52.164;10.530;2023-05-29T11:31:55;7.05;;;1.65;;
10244;SDS011;5167;52.164;10.530;2023-05-29T11:34:27;8.43;;;2.40;;
10244;SDS011;5167;52.164;10.530;2023-05-29T11:36:54;5.10;;;2.47;;
10244;SDS011;5167;52.164;10.530;2023-05-29T11:39:21;6.45;;;2.42;;
10244;SDS011;5167;52.164;10.530;2023-05-29T11:41:49;4.18;;;2.92;;
10244;SDS011;5167;52.164;10.530;2023-05-29T11:44:16;4.20;;;1.95;;
10244;SDS011;5167;52.164;10.530;2023-05-29T11:46:42;6.57;;;1.98;;
10244;SDS011;5167;52.164;10.530;2023-05-29T11:49:07;5.32;;;2.22;;
10244;SDS011;5167;52.164;10.530;2023-05-29T11:51:33;5.43;;;2.42;;
10244;SDS011;5167;52.164;10.530;2023-05-29T11:53:58;3.85;;;1.80;;
10244;SDS011;5167;52.164;10.530;2023-05-29T11:56:24;6.10;;;2.10;;
10244;SDS011;5167;52.164;10.530;2023-05-29T11:58:51;6.22;;;2.42;;
10244;SDS011;5167;52.164;10.530;2023-05-29T12:01:20;7.32;;;2.40;;
10244;SDS011;5167;52.164;10.530;2023-05-29T12:03:46;4.80;;;1.92;;
10244;SDS011;5167;52.164;10.530;2023-05-29T12:06:11;5.95;;;2.55;;
10244;SDS011;5167;52.164;10.530;2023-05-29T12:08:37;3.53;;;2.15;;
10244;SDS011;5167;52.164;10.530;2023-05-29T12:11:04;4.22;;;1.95;;
10244;SDS011;5167;52.164;10.530;2023-05-29T12:13:30;5.13;;;2.55;;
10244;SDS011;5167;52.164;10.530;2023-05-29T12:15:56;6.85;;;2.20;;
10244;SDS011;5167;52.164;10.530;2023-05-29T12:18:24;4.78;;;2.22;;
10244;SDS011;5167;52.164;10.530;2023-05-29T12:20:50;8.50;;;2.17;;
10244;SDS011;5167;52.164;10.530;2023-05-29T12:23:17;4.78;;;2.38;;
10244;SDS011;5167;52.164;10.530;2023-05-29T12:25:45;6.78;;;2.38;;
10244;SDS011;5167;52.164;10.530;2023-05-29T12:28:15;4.70;;;2.58;;
10244;SDS011;5167;52.164;10.530;2023-05-29T12:30:44;8.07;;;2.47;;
10244;SDS011;5167;52.164;10.530;2023-05-29T12:33:29;8.85;;;2.83;;
10244;SDS011;5167;52.164;10.530;2023-05-29T12:36:04;9.95;;;2.80;;
10244;SDS011;5167;52.164;10.530;2023-05-29T12:38:49;5.95;;;2.80;;
10244;SDS011;5167;52.164;10.530;2023-05-29T12:43:48;7.72;;;2.00;;
10244;SDS011;5167;52.164;10.530;2023-05-29T12:46:14;4.55;;;2.20;;
10244;SDS011;5167;52.164;10.530;2023-05-29T12:48:39;6.25;;;2.03;;
10244;SDS011;5167;52.164;10.530;2023-05-29T12:51:05;9.40;;;2.42;;
10244;SDS011;5167;52.164;10.530;2023-05-29T12:53:32;5.25;;;2.15;;
10244;SDS011;5167;52.164;10.530;2023-05-29T12:55:58;6.70;;;2.45;;
10244;SDS011;5167;52.164;10.530;2023-05-29T12:58:24;6.65;;;2.10;;
10244;SDS011;5167;52.164;10.530;2023-05-29T13:00:52;4.50;;;2.03;;
10244;SDS011;5167;52.164;10.530;2023-05-29T13:03:21;4.82;;;2.22;;
10244;SDS011;5167;52.164;10.530;2023-05-29T13:05:50;3.92;;;2.00;;
10244;SDS011;5167;52.164;10.530;2023-05-29T13:08:16;5.75;;;2.25;;
10244;SDS011;5167;52.164;10.530;2023-05-29T13:10:42;4.05;;;2.28;;
10244;SDS011;5167;52.164;10.530;2023-05-29T13:13:08;4.80;;;2.10;;
10244;SDS011;5167;52.164;10.530;2023-05-29T13:15:35;3.70;;;1.90;;
10244;SDS011;5167;52.164;10.530;2023-05-29T13:18:00;6.40;;;1.95;;
10244;SDS011;5167;52.164;10.530;2023-05-29T13:20:26;6.80;;;2.22;;
10244;SDS011;5167;52.164;10.530;2023-05-29T13:22:51;4.00;;;1.75;;
10244;SDS011;5167;52.164;10.530;2023-05-29T13:25:19;3.97;;;1.50;;
10244;SDS011;5167;52.164;10.530;2023-05-29T13:27:49;4.78;;;2.00;;
10244;SDS011;5167;52.164;10.530;2023-05-29T13:30:15;2.78;;;2.00;;
10244;SDS011;5167;52.164;10.530;2023-05-29T13:32:41;5.60;;;2.15;;
10244;SDS011;5167;52.164;10.530;2023-05-29T13:35:07;5.30;;;1.70;;
10244;SDS011;5167;52.164;10.530;2023-05-29T13:37:33;6.57;;;1.90;;
10244;SDS011;5167;52.164;10.530;2023-05-29T13:40:01;6.20;;;2.13;;
10244;SDS011;5167;52.164;10.530;2023-05-29T13:42:26;2.67;;;1.80;;
10244;SDS011;5167;52.164;10.530;2023-05-29T13:44:52;3.10;;;1.90;;
10244;SDS011;5167;52.164;10.530;2023-05-29T13:47:18;6.38;;;2.00;;
10244;SDS011;5167;52.164;10.530;2023-05-29T13:49:44;4.65;;;1.90;;
10244;SDS011;5167;52.164;10.530;2023-05-29T13:52:09;4.93;;;1.50;;
10244;SDS011;5167;52.164;10.530;2023-05-29T13:54:35;3.40;;;1.92;;
10244;SDS011;5167;52.164;10.530;2023-05-29T13:57:04;7.68;;;2.05;;
10244;SDS011;5167;52.164;10.530;2023-05-29T13:59:31;7.10;;;2.03;;
10244;SDS011;5167;52.164;10.530;2023-05-29T14:02:00;3.17;;;1.85;;
10244;SDS011;5167;52.164;10.530;2023-05-29T14:04:28;6.05;;;1.80;;
10244;SDS011;5167;52.164;10.530;2023-05-29T14:06:54;5.95;;;1.98;;
10244;SDS011;5167;52.164;10.530;2023-05-29T14:09:21;3.53;;;1.70;;
10244;SDS011;5167;52.164;10.530;2023-05-29T14:11:53;4.65;;;1.80;;
10244;SDS011;5167;52.164;10.530;2023-05-29T14:14:25;6.72;;;2.08;;
10244;SDS011;5167;52.164;10.530;2023-05-29T14:16:51;3.97;;;1.80;;
10244;SDS011;5167;52.164;10.530;2023-05-29T14:19:19;9.02;;;2.00;;
10244;SDS011;5167;52.164;10.530;2023-05-29T14:21:45;5.43;;;1.88;;
10244;SDS011;5167;52.164;10.530;2023-05-29T14:24:10;5.72;;;2.03;;
10244;SDS011;5167;52.164;10.530;2023-05-29T14:26:36;4.75;;;1.60;;
10244;SDS011;5167;52.164;10.530;2023-05-29T14:29:02;5.15;;;2.35;;
10244;SDS011;5167;52.164;10.530;2023-05-29T14:31:28;4.78;;;2.25;;
10244;SDS011;5167;52.164;10.530;2023-05-29T14:33:53;5.25;;;2.15;;
10244;SDS011;5167;52.164;10.530;2023-05-29T14:36:19;7.55;;;2.42;;
10244;SDS011;5167;52.164;10.530;2023-05-29T14:38:44;5.82;;;1.90;;
10244;SDS011;5167;52.164;10.530;2023-05-29T14:41:11;7.13;;;2.17;;
10244;SDS011;5167;52.164;10.530;2023-05-29T14:43:37;3.90;;;1.60;;
10244;SDS011;5167;52.164;10.530;2023-05-29T14:46:03;6.55;;;2.47;;
10244;SDS011;5167;52.164;10.530;2023-05-29T14:48:29;7.50;;;1.98;;
10244;SDS011;5167;52.164;10.530;2023-05-29T14:50:55;7.00;;;2.10;;
10244;SDS011;5167;52.164;10.530;2023-05-29T14:53:20;4.10;;;1.90;;
10244;SDS011;5167;52.164;10.530;2023-05-29T14:55:47;6.38;;;1.67;;
10244;SDS011;5167;52.164;10.530;2023-05-29T14:58:13;4.43;;;1.85;;
10244;SDS011;5167;52.164;10.530;2023-05-29T15:00:39;9.38;;;1.88;;